sensor_id;sensor_type;location;lat;lon;timestamp;pressure;altitude;pressure_sealevel;temperature;humidity
74268;BME280;62638;51.362;12.472;2022-08-19T00:01:38;99632.66;;;19.20;97.61
74268;BME280;62638;51.362;12.472;2022-08-19T00:04:07;99642.44;;;19.21;97.41
74268;BME280;62638;51.362;12.472;2022-08-19T00:06:34;99648.72;;;19.28;97.14
74268;BME280;62638;51.362;12.472;2022-08-19T00:09:02;99655.19;;;19.27;97.16
74268;BME280;62638;51.362;12.472;2022-08-19T00:11:27;99645.16;;;19.21;97.36
74268;BME280;62638;51.362;12.472;2022-08-19T00:13:56;99641.22;;;19.23;97.20
74268;BME280;62638;51.362;12.472;2022-08-19T00:16:22;99620.53;;;19.22;97.43
74268;BME280;62638;51.362;12.472;2022-08-19T00:18:48;99609.22;;;19.25;97.85
74268;BME280;62638;51.362;12.472;2022-08-19T00:21:14;99595.88;;;19.24;98.10
74268;BME280;62638;51.362;12.472;2022-08-19T00:23:40;99598.81;;;19.22;98.12
74268;BME280;62638;51.362;12.472;2022-08-19T00:26:06;99619.69;;;19.22;97.57
74268;BME280;62638;51.362;12.472;2022-08-19T00:28:32;99631.34;;;19.29;97.41
74268;BME280;62638;51.362;12.472;2022-08-19T00:30:59;99625.13;;;19.28;97.59
74268;BME280;62638;51.362;12.472;2022-08-19T00:33:24;99610.69;;;19.28;97.46
74268;BME280;62638;51.362;12.472;2022-08-19T00:35:49;99607.41;;;19.19;98.15
74268;BME280;62638;51.362;12.472;2022-08-19T00:38:14;99595.50;;;19.14;98.21
74268;BME280;62638;51.362;12.472;2022-08-19T00:40:43;99596.34;;;19.14;98.19
74268;BME280;62638;51.362;12.472;2022-08-19T00:43:12;99594.88;;;19.12;98.27
74268;BME280;62638;51.362;12.472;2022-08-19T00:45:39;99596.53;;;19.19;98.32
74268;BME280;62638;51.362;12.472;2022-08-19T00:48:07;99607.16;;;19.21;98.64
74268;BME280;62638;51.362;12.472;2022-08-19T00:50:33;99611.53;;;19.22;98.48
74268;BME280;62638;51.362;12.472;2022-08-19T00:53:00;99617.81;;;19.16;98.44
74268;BME280;62638;51.362;12.472;2022-08-19T00:55:30;99616.19;;;19.15;98.48
74268;BME280;62638;51.362;12.472;2022-08-19T00:58:09;99606.81;;;19.11;98.72
74268;BME280;62638;51.362;12.472;2022-08-19T01:00:36;99597.78;;;19.17;98.87
74268;BME280;62638;51.362;12.472;2022-08-19T01:03:15;99582.13;;;19.12;99.02
74268;BME280;62638;51.362;12.472;2022-08-19T01:05:42;99574.81;;;19.13;98.72
74268;BME280;62638;51.362;12.472;2022-08-19T01:08:09;99570.69;;;19.10;99.23
74268;BME280;62638;51.362;12.472;2022-08-19T01:10:42;99573.16;;;19.12;99.23
74268;BME280;62638;51.362;12.472;2022-08-19T01:13:09;99576.31;;;19.09;99.12
74268;BME280;62638;51.362;12.472;2022-08-19T01:15:46;99592.00;;;19.07;99.15
74268;BME280;62638;51.362;12.472;2022-08-19T01:18:15;99580.28;;;19.06;99.63
74268;BME280;62638;51.362;12.472;2022-08-19T01:20:42;99581.13;;;19.07;99.27
74268;BME280;62638;51.362;12.472;2022-08-19T01:23:08;99573.00;;;19.07;99.30
74268;BME280;62638;51.362;12.472;2022-08-19T01:25:41;99578.81;;;19.10;99.34
74268;BME280;62638;51.362;12.472;2022-08-19T01:28:15;99574.03;;;19.06;99.81
74268;BME280;62638;51.362;12.472;2022-08-19T01:30:40;99567.56;;;19.07;100.00
74268;BME280;62638;51.362;12.472;2022-08-19T01:33:05;99551.28;;;19.07;99.94
74268;BME280;62638;51.362;12.472;2022-08-19T01:35:31;99542.50;;;19.04;99.55
74268;BME280;62638;51.362;12.472;2022-08-19T01:38:00;99537.69;;;19.07;99.64
74268;BME280;62638;51.362;12.472;2022-08-19T01:40:30;99544.19;;;19.06;100.00
74268;BME280;62638;51.362;12.472;2022-08-19T01:42:57;99549.38;;;19.07;99.95
74268;BME280;62638;51.362;12.472;2022-08-19T01:45:25;99550.66;;;19.04;99.82
74268;BME280;62638;51.362;12.472;2022-08-19T01:47:51;99549.16;;;19.09;99.92
74268;BME280;62638;51.362;12.472;2022-08-19T01:50:17;99550.19;;;19.08;99.86
74268;BME280;62638;51.362;12.472;2022-08-19T01:52:44;99539.34;;;19.08;100.00
74268;BME280;62638;51.362;12.472;2022-08-19T01:55:13;99524.13;;;19.07;100.00
74268;BME280;62638;51.362;12.472;2022-08-19T01:57:41;99498.63;;;19.08;100.00
74268;BME280;62638;51.362;12.472;2022-08-19T02:00:12;99474.63;;;19.11;100.00
74268;BME280;62638;51.362;12.472;2022-08-19T02:02:39;99469.22;;;19.04;99.97
74268;BME280;62638;51.362;12.472;2022-08-19T02:05:05;99461.50;;;19.01;100.00
74268;BME280;62638;51.362;12.472;2022-08-19T02:07:32;99467.53;;;19.03;100.00
74268;BME280;62638;51.362;12.472;2022-08-19T02:09:57;99488.84;;;19.07;100.00
74268;BME280;62638;51.362;12.472;2022-08-19T02:12:23;99481.13;;;19.03;99.90
74268;BME280;62638;51.362;12.472;2022-08-19T02:14:48;99487.16;;;19.06;99.97
74268;BME280;62638;51.362;12.472;2022-08-19T02:17:14;99478.19;;;19.05;100.00
74268;BME280;62638;51.362;12.472;2022-08-19T02:19:39;99486.91;;;19.14;100.00
74268;BME280;62638;51.362;12.472;2022-08-19T02:22:05;99488.84;;;19.07;100.00
74268;BME280;62638;51.362;12.472;2022-08-19T02:24:30;99506.34;;;19.11;100.00
74268;BME280;62638;51.362;12.472;2022-08-19T02:26:56;99500.94;;;19.11;100.00
74268;BME280;62638;51.362;12.472;2022-08-19T02:29:23;99502.56;;;19.12;100.00
74268;BME280;62638;51.362;12.472;2022-08-19T02:31:49;99505.53;;;19.10;100.00
74268;BME280;62638;51.362;12.472;2022-08-19T02:34:14;99505.28;;;19.12;100.00
74268;BME280;62638;51.362;12.472;2022-08-19T02:36:39;99507.41;;;19.10;100.00
74268;BME280;62638;51.362;12.472;2022-08-19T02:39:04;99507.59;;;19.15;100.00
74268;BME280;62638;51.362;12.472;2022-08-19T02:41:32;99506.13;;;19.12;99.75
74268;BME280;62638;51.362;12.472;2022-08-19T02:44:00;99506.13;;;19.12;100.00
74268;BME280;62638;51.362;12.472;2022-08-19T02:46:28;99504.69;;;19.10;100.00
74268;BME280;62638;51.362;12.472;2022-08-19T02:49:01;99483.56;;;19.12;99.93
74268;BME280;62638;51.362;12.472;2022-08-19T02:51:30;99487.34;;;19.11;99.65
74268;BME280;62638;51.362;12.472;2022-08-19T02:53:56;99483.56;;;19.12;99.64
74268;BME280;62638;51.362;12.472;2022-08-19T02:56:22;99472.31;;;19.08;99.64
74268;BME280;62638;51.362;12.472;2022-08-19T02:58:50;99470.88;;;19.06;99.86
74268;BME280;62638;51.362;12.472;2022-08-19T03:01:23;99486.72;;;19.09;100.00
74268;BME280;62638;51.362;12.472;2022-08-19T03:03:49;99495.91;;;19.08;99.90
74268;BME280;62638;51.362;12.472;2022-08-19T03:06:16;99513.28;;;19.07;100.00
74268;BME280;62638;51.362;12.472;2022-08-19T03:08:44;99524.13;;;19.07;100.00
74268;BME280;62638;51.362;12.472;2022-08-19T03:11:19;99528.47;;;19.14;99.97
74268;BME280;62638;51.362;12.472;2022-08-19T03:13:46;99538.50;;;19.14;100.00
74268;BME280;62638;51.362;12.472;2022-08-19T03:16:14;99556.22;;;19.16;100.00
74268;BME280;62638;51.362;12.472;2022-08-19T03:18:39;99565.63;;;19.14;100.00
74268;BME280;62638;51.362;12.472;2022-08-19T03:21:05;99574.16;;;19.24;99.59
74268;BME280;62638;51.362;12.472;2022-08-19T03:23:31;99585.41;;;19.27;99.94
74268;BME280;62638;51.362;12.472;2022-08-19T03:25:57;99577.94;;;19.16;99.68
74268;BME280;62638;51.362;12.472;2022-08-19T03:28:22;99570.81;;;19.22;99.64
74268;BME280;62638;51.362;12.472;2022-08-19T03:30:56;99564.84;;;19.07;99.74
74268;BME280;62638;51.362;12.472;2022-08-19T03:33:22;99560.06;;;19.02;99.59
74268;BME280;62638;51.362;12.472;2022-08-19T03:36:09;99563.38;;;19.04;99.95
74268;BME280;62638;51.362;12.472;2022-08-19T03:38:41;99583.84;;;19.07;100.00
74268;BME280;62638;51.362;12.472;2022-08-19T03:41:10;99590.53;;;19.04;99.89
74268;BME280;62638;51.362;12.472;2022-08-19T03:43:37;99608.88;;;19.09;99.88
74268;BME280;62638;51.362;12.472;2022-08-19T03:46:12;99614.50;;;19.07;99.81
74268;BME280;62638;51.362;12.472;2022-08-19T03:48:40;99617.91;;;19.02;99.65
74268;BME280;62638;51.362;12.472;2022-08-19T03:51:06;99612.69;;;19.01;99.79
74268;BME280;62638;51.362;12.472;2022-08-19T03:53:33;99603.94;;;18.92;99.97
74268;BME280;62638;51.362;12.472;2022-08-19T03:56:00;99601.22;;;18.92;100.00
74268;BME280;62638;51.362;12.472;2022-08-19T03:58:27;99599.16;;;18.88;100.00
74268;BME280;62638;51.362;12.472;2022-08-19T04:00:55;99598.09;;;18.89;100.00
74268;BME280;62638;51.362;12.472;2022-08-19T04:03:21;99593.50;;;18.89;100.00
74268;BME280;62638;51.362;12.472;2022-08-19T04:05:46;99588.09;;;18.89;100.00
74268;BME280;62638;51.362;12.472;2022-08-19T04:08:13;99591.84;;;18.88;100.00
74268;BME280;62638;51.362;12.472;2022-08-19T04:10:41;99598.09;;;18.89;100.00
74268;BME280;62638;51.362;12.472;2022-08-19T04:13:07;99602.91;;;18.93;100.00
74268;BME280;62638;51.362;12.472;2022-08-19T04:15:38;99602.47;;;18.96;100.00
74268;BME280;62638;51.362;12.472;2022-08-19T04:18:07;99603.50;;;18.95;100.00
74268;BME280;62638;51.362;12.472;2022-08-19T04:20:38;99598.50;;;18.92;100.00
74268;BME280;62638;51.362;12.472;2022-08-19T04:23:03;99608.50;;;18.98;100.00
74268;BME280;62638;51.362;12.472;2022-08-19T04:25:35;99615.19;;;19.02;100.00
74268;BME280;62638;51.362;12.472;2022-08-19T04:28:00;99616.81;;;19.10;100.00
74268;BME280;62638;51.362;12.472;2022-08-19T04:30:26;99622.84;;;19.12;100.00
74268;BME280;62638;51.362;12.472;2022-08-19T04:32:51;99620.53;;;19.16;99.68
74268;BME280;62638;51.362;12.472;2022-08-19T04:35:16;99610.34;;;19.11;99.49
74268;BME280;62638;51.362;12.472;2022-08-19T04:37:41;99595.94;;;19.04;100.00
74268;BME280;62638;51.362;12.472;2022-08-19T04:40:07;99586.13;;;19.03;99.68
74268;BME280;62638;51.362;12.472;2022-08-19T04:42:51;99584.25;;;19.03;99.96
74268;BME280;62638;51.362;12.472;2022-08-19T04:45:18;99574.22;;;19.04;100.00
74268;BME280;62638;51.362;12.472;2022-08-19T04:47:43;99572.56;;;19.03;99.68
74268;BME280;62638;51.362;12.472;2022-08-19T04:50:10;99576.75;;;19.06;99.96
74268;BME280;62638;51.362;12.472;2022-08-19T04:52:36;99578.00;;;19.03;99.93
74268;BME280;62638;51.362;12.472;2022-08-19T04:55:02;99585.47;;;19.14;100.00
74268;BME280;62638;51.362;12.472;2022-08-19T04:57:27;99594.03;;;19.18;100.00
74268;BME280;62638;51.362;12.472;2022-08-19T04:59:54;99600.47;;;19.23;99.74
74268;BME280;62638;51.362;12.472;2022-08-19T05:02:20;99604.84;;;19.24;99.40
74268;BME280;62638;51.362;12.472;2022-08-19T05:04:51;99606.50;;;19.32;99.73
74268;BME280;62638;51.362;12.472;2022-08-19T05:07:16;99609.22;;;19.32;98.89
74268;BME280;62638;51.362;12.472;2022-08-19T05:09:41;99618.84;;;19.28;99.35
74268;BME280;62638;51.362;12.472;2022-08-19T05:12:07;99623.19;;;19.29;99.02
74268;BME280;62638;51.362;12.472;2022-08-19T05:14:33;99621.13;;;19.24;99.38
74268;BME280;62638;51.362;12.472;2022-08-19T05:17:00;99621.56;;;19.28;99.60
74268;BME280;62638;51.362;12.472;2022-08-19T05:19:26;99615.09;;;19.22;99.44
74268;BME280;62638;51.362;12.472;2022-08-19T05:22:09;99621.56;;;19.28;99.38
74268;BME280;62638;51.362;12.472;2022-08-19T05:24:53;99614.25;;;19.28;99.21
74268;BME280;62638;51.362;12.472;2022-08-19T05:27:19;99606.50;;;19.32;99.39
74268;BME280;62638;51.362;12.472;2022-08-19T05:29:44;99616.91;;;19.35;99.19
74268;BME280;62638;51.362;12.472;2022-08-19T05:32:09;99617.09;;;19.40;99.08
74268;BME280;62638;51.362;12.472;2022-08-19T05:34:36;99617.75;;;19.35;98.86
74268;BME280;62638;51.362;12.472;2022-08-19T05:37:03;99621.69;;;19.46;98.81
74268;BME280;62638;51.362;12.472;2022-08-19T05:39:31;99628.41;;;19.37;98.83
74268;BME280;62638;51.362;12.472;2022-08-19T05:42:01;99649.50;;;19.41;98.83
74268;BME280;62638;51.362;12.472;2022-08-19T05:44:29;99650.13;;;19.43;99.05
74268;BME280;62638;51.362;12.472;2022-08-19T05:46:57;99652.84;;;19.37;98.72
74268;BME280;62638;51.362;12.472;2022-08-19T05:49:23;99661.00;;;19.37;98.93
74268;BME280;62638;51.362;12.472;2022-08-19T05:51:50;99663.28;;;19.40;99.01
74268;BME280;62638;51.362;12.472;2022-08-19T05:54:15;99664.09;;;19.47;98.56
74268;BME280;62638;51.362;12.472;2022-08-19T05:56:42;99672.03;;;19.42;98.62
74268;BME280;62638;51.362;12.472;2022-08-19T05:59:09;99676.22;;;19.38;98.43
74268;BME280;62638;51.362;12.472;2022-08-19T06:01:38;99674.75;;;19.42;98.62
74268;BME280;62638;51.362;12.472;2022-08-19T06:04:04;99677.50;;;19.48;98.64
74268;BME280;62638;51.362;12.472;2022-08-19T06:06:29;99668.91;;;19.52;98.49
74268;BME280;62638;51.362;12.472;2022-08-19T06:08:55;99670.16;;;19.49;98.42
74268;BME280;62638;51.362;12.472;2022-08-19T06:11:31;99674.13;;;19.53;98.24
74268;BME280;62638;51.362;12.472;2022-08-19T06:14:04;99680.41;;;19.47;98.38
74268;BME280;62638;51.362;12.472;2022-08-19T06:16:30;99678.09;;;19.51;98.08
74268;BME280;62638;51.362;12.472;2022-08-19T06:19:00;99680.00;;;19.50;98.57
74268;BME280;62638;51.362;12.472;2022-08-19T06:21:27;99681.25;;;19.47;98.48
74268;BME280;62638;51.362;12.472;2022-08-19T06:23:54;99679.56;;;19.40;98.23
74268;BME280;62638;51.362;12.472;2022-08-19T06:26:21;99675.81;;;19.41;97.89
74268;BME280;62638;51.362;12.472;2022-08-19T06:28:47;99683.13;;;19.34;97.73
74268;BME280;62638;51.362;12.472;2022-08-19T06:31:18;99681.06;;;19.29;97.60
74268;BME280;62638;51.362;12.472;2022-08-19T06:33:44;99692.16;;;19.28;97.53
74268;BME280;62638;51.362;12.472;2022-08-19T06:36:25;99693.41;;;19.32;97.75
74268;BME280;62638;51.362;12.472;2022-08-19T06:38:55;99704.91;;;19.27;97.77
74268;BME280;62638;51.362;12.472;2022-08-19T06:41:23;99715.53;;;19.29;97.72
74268;BME280;62638;51.362;12.472;2022-08-19T06:43:48;99730.78;;;19.30;97.90
74268;BME280;62638;51.362;12.472;2022-08-19T06:46:15;99733.25;;;19.38;97.75
74268;BME280;62638;51.362;12.472;2022-08-19T06:48:41;99753.97;;;19.32;97.96
74268;BME280;62638;51.362;12.472;2022-08-19T06:51:06;99758.16;;;19.22;97.46
74268;BME280;62638;51.362;12.472;2022-08-19T06:53:32;99762.97;;;19.26;97.46
74268;BME280;62638;51.362;12.472;2022-08-19T06:55:58;99769.03;;;19.22;97.22
74268;BME280;62638;51.362;12.472;2022-08-19T06:58:30;99775.94;;;19.18;97.67
74268;BME280;62638;51.362;12.472;2022-08-19T07:00:58;99771.13;;;19.20;97.40
74268;BME280;62638;51.362;12.472;2022-08-19T07:03:28;99783.44;;;19.16;97.52
74268;BME280;62638;51.362;12.472;2022-08-19T07:05:53;99791.56;;;19.16;97.88
74268;BME280;62638;51.362;12.472;2022-08-19T07:08:19;99796.19;;;19.15;97.89
74268;BME280;62638;51.362;12.472;2022-08-19T07:10:45;99800.59;;;19.10;97.88
74268;BME280;62638;51.362;12.472;2022-08-19T07:13:10;99801.41;;;19.03;97.85
74268;BME280;62638;51.362;12.472;2022-08-19T07:15:36;99802.88;;;19.06;97.73
74268;BME280;62638;51.362;12.472;2022-08-19T07:18:02;99806.84;;;19.03;97.56
74268;BME280;62638;51.362;12.472;2022-08-19T07:20:28;99807.91;;;19.02;97.67
74268;BME280;62638;51.362;12.472;2022-08-19T07:22:53;99806.84;;;18.97;97.62
74268;BME280;62638;51.362;12.472;2022-08-19T07:25:18;99805.59;;;18.99;98.40
74268;BME280;62638;51.362;12.472;2022-08-19T07:27:48;99810.41;;;18.97;98.39
74268;BME280;62638;51.362;12.472;2022-08-19T07:30:14;99810.19;;;18.92;98.08
74268;BME280;62638;51.362;12.472;2022-08-19T07:32:39;99814.38;;;18.88;98.23
74268;BME280;62638;51.362;12.472;2022-08-19T07:35:05;99815.59;;;18.86;98.20
74268;BME280;62638;51.362;12.472;2022-08-19T07:37:31;99818.13;;;18.81;98.54
74268;BME280;62638;51.362;12.472;2022-08-19T07:39:56;99805.78;;;18.78;98.72
74268;BME280;62638;51.362;12.472;2022-08-19T07:42:22;99808.31;;;18.80;98.62
74268;BME280;62638;51.362;12.472;2022-08-19T07:44:47;99809.34;;;18.79;98.34
74268;BME280;62638;51.362;12.472;2022-08-19T07:47:12;99808.72;;;18.77;98.90
74268;BME280;62638;51.362;12.472;2022-08-19T07:49:40;99811.00;;;18.73;98.67
74268;BME280;62638;51.362;12.472;2022-08-19T07:52:07;99812.06;;;18.72;98.45
74268;BME280;62638;51.362;12.472;2022-08-19T07:54:35;99814.56;;;18.74;98.57
74268;BME280;62638;51.362;12.472;2022-08-19T07:57:01;99813.72;;;18.73;98.60
74268;BME280;62638;51.362;12.472;2022-08-19T07:59:27;99812.25;;;18.71;98.29
74268;BME280;62638;51.362;12.472;2022-08-19T08:01:53;99817.50;;;18.72;98.38
74268;BME280;62638;51.362;12.472;2022-08-19T08:04:19;99812.25;;;18.77;98.67
74268;BME280;62638;51.362;12.472;2022-08-19T08:07:17;99813.94;;;18.78;97.99
74268;BME280;62638;51.362;12.472;2022-08-19T08:10:03;99813.50;;;18.81;98.24
74268;BME280;62638;51.362;12.472;2022-08-19T08:12:33;99819.56;;;18.83;98.15
74268;BME280;62638;51.362;12.472;2022-08-19T08:15:01;99814.78;;;18.85;98.22
74268;BME280;62638;51.362;12.472;2022-08-19T08:17:29;99809.56;;;18.90;98.28
74268;BME280;62638;51.362;12.472;2022-08-19T08:19:55;99814.13;;;19.03;98.44
74268;BME280;62638;51.362;12.472;2022-08-19T08:22:21;99811.44;;;19.10;98.13
74268;BME280;62638;51.362;12.472;2022-08-19T08:27:38;99837.31;;;19.25;97.65
74268;BME280;62638;51.362;12.472;2022-08-19T08:30:06;99827.50;;;19.24;97.28
74268;BME280;62638;51.362;12.472;2022-08-19T08:32:38;99836.69;;;19.30;97.02
74268;BME280;62638;51.362;12.472;2022-08-19T08:35:07;99838.78;;;19.34;97.36
74268;BME280;62638;51.362;12.472;2022-08-19T08:37:33;99835.66;;;19.18;97.16
74268;BME280;62638;51.362;12.472;2022-08-19T08:40:02;99841.28;;;19.16;97.04
74268;BME280;62638;51.362;12.472;2022-08-19T08:42:36;99838.81;;;19.15;97.84
74268;BME280;62638;51.362;12.472;2022-08-19T08:45:12;99837.72;;;19.16;97.63
74268;BME280;62638;51.362;12.472;2022-08-19T08:47:43;99841.53;;;19.15;97.95
74268;BME280;62638;51.362;12.472;2022-08-19T08:50:20;99847.16;;;19.13;97.81
74268;BME280;62638;51.362;12.472;2022-08-19T08:52:53;99849.03;;;19.19;97.23
74268;BME280;62638;51.362;12.472;2022-08-19T08:55:27;99864.06;;;19.09;96.96
74268;BME280;62638;51.362;12.472;2022-08-19T08:58:05;99854.22;;;19.08;97.06
74268;BME280;62638;51.362;12.472;2022-08-19T09:00:35;99854.06;;;19.02;97.22
74268;BME280;62638;51.362;12.472;2022-08-19T09:03:15;99852.16;;;19.16;97.15
74268;BME280;62638;51.362;12.472;2022-08-19T09:08:27;99853.00;;;19.23;97.03
74268;BME280;62638;51.362;12.472;2022-08-19T09:10:57;99843.38;;;19.21;95.79
74268;BME280;62638;51.362;12.472;2022-08-19T09:13:33;99854.22;;;19.34;95.85
74268;BME280;62638;51.362;12.472;2022-08-19T09:16:16;99854.00;;;19.42;94.98
74268;BME280;62638;51.362;12.472;2022-08-19T09:18:48;99851.75;;;19.32;95.01
74268;BME280;62638;51.362;12.472;2022-08-19T09:21:15;99844.63;;;19.38;95.49
74268;BME280;62638;51.362;12.472;2022-08-19T09:23:40;99857.38;;;19.51;95.33
74268;BME280;62638;51.362;12.472;2022-08-19T09:26:11;99854.03;;;19.29;94.73
74268;BME280;62638;51.362;12.472;2022-08-19T09:28:39;99856.09;;;19.33;94.93
74268;BME280;62638;51.362;12.472;2022-08-19T09:31:07;99862.19;;;19.35;94.44
74268;BME280;62638;51.362;12.472;2022-08-19T09:33:32;99868.25;;;19.31;94.58
74268;BME280;62638;51.362;12.472;2022-08-19T09:36:03;99867.59;;;19.35;94.66
74268;BME280;62638;51.362;12.472;2022-08-19T09:38:28;99869.50;;;19.41;94.20
74268;BME280;62638;51.362;12.472;2022-08-19T09:40:53;99874.72;;;19.56;94.61
74268;BME280;62638;51.362;12.472;2022-08-19T09:43:19;99880.59;;;19.53;93.30
74268;BME280;62638;51.362;12.472;2022-08-19T09:45:44;99875.75;;;19.55;93.41
74268;BME280;62638;51.362;12.472;2022-08-19T09:48:09;99864.44;;;19.78;92.74
74268;BME280;62638;51.362;12.472;2022-08-19T09:50:35;99851.81;;;20.10;91.35
74268;BME280;62638;51.362;12.472;2022-08-19T09:53:01;99852.22;;;20.07;91.61
74268;BME280;62638;51.362;12.472;2022-08-19T09:55:26;99861.44;;;20.06;90.70
74268;BME280;62638;51.362;12.472;2022-08-19T09:57:53;99854.59;;;19.83;91.82
74268;BME280;62638;51.362;12.472;2022-08-19T10:00:18;99869.03;;;19.84;91.71
74268;BME280;62638;51.362;12.472;2022-08-19T10:02:44;99856.41;;;20.03;91.15
74268;BME280;62638;51.362;12.472;2022-08-19T10:05:09;99852.59;;;20.23;89.94
74268;BME280;62638;51.362;12.472;2022-08-19T10:07:53;99832.25;;;20.26;89.54
74268;BME280;62638;51.362;12.472;2022-08-19T10:10:19;99831.88;;;20.22;89.21
74268;BME280;62638;51.362;12.472;2022-08-19T10:12:44;99830.38;;;20.33;89.69
74268;BME280;62638;51.362;12.472;2022-08-19T10:15:12;99824.19;;;20.51;88.73
74268;BME280;62638;51.362;12.472;2022-08-19T10:17:38;99822.19;;;20.40;87.42
74268;BME280;62638;51.362;12.472;2022-08-19T10:20:03;99825.78;;;20.27;88.12
74268;BME280;62638;51.362;12.472;2022-08-19T10:22:29;99839.44;;;20.14;88.20
74268;BME280;62638;51.362;12.472;2022-08-19T10:24:55;99848.84;;;20.18;88.18
74268;BME280;62638;51.362;12.472;2022-08-19T10:27:21;99854.03;;;20.19;88.16
74268;BME280;62638;51.362;12.472;2022-08-19T10:29:47;99848.44;;;20.14;88.50
74268;BME280;62638;51.362;12.472;2022-08-19T10:32:12;99847.97;;;20.30;88.31
74268;BME280;62638;51.362;12.472;2022-08-19T10:34:39;99852.75;;;20.28;87.30
74268;BME280;62638;51.362;12.472;2022-08-19T10:37:05;99863.22;;;20.25;86.83
74268;BME280;62638;51.362;12.472;2022-08-19T10:39:32;99854.00;;;20.32;86.35
74268;BME280;62638;51.362;12.472;2022-08-19T10:41:58;99867.09;;;20.55;84.75
74268;BME280;62638;51.362;12.472;2022-08-19T10:44:24;99872.00;;;20.33;86.78
74268;BME280;62638;51.362;12.472;2022-08-19T10:46:49;99862.47;;;20.56;85.73
74268;BME280;62638;51.362;12.472;2022-08-19T10:49:14;99870.47;;;20.51;85.38
74268;BME280;62638;51.362;12.472;2022-08-19T10:51:40;99875.94;;;20.44;86.06
74268;BME280;62638;51.362;12.472;2022-08-19T10:54:25;99872.66;;;20.35;85.57
74268;BME280;62638;51.362;12.472;2022-08-19T10:57:10;99878.28;;;20.41;85.44
74268;BME280;62638;51.362;12.472;2022-08-19T10:59:35;99878.34;;;20.65;85.02
74268;BME280;62638;51.362;12.472;2022-08-19T11:02:02;99873.16;;;20.89;82.82
74268;BME280;62638;51.362;12.472;2022-08-19T11:04:28;99873.59;;;20.86;82.51
74268;BME280;62638;51.362;12.472;2022-08-19T11:06:53;99863.59;;;20.79;83.04
74268;BME280;62638;51.362;12.472;2022-08-19T11:09:22;99857.31;;;20.79;82.46
74268;BME280;62638;51.362;12.472;2022-08-19T11:11:53;99865.91;;;21.07;82.54
74268;BME280;62638;51.362;12.472;2022-08-19T11:14:19;99869.84;;;20.87;82.78
74268;BME280;62638;51.362;12.472;2022-08-19T11:16:47;99870.09;;;20.78;83.58
74268;BME280;62638;51.362;12.472;2022-08-19T11:19:12;99878.34;;;20.97;82.79
74268;BME280;62638;51.362;12.472;2022-08-19T11:21:42;99891.25;;;20.76;82.68
74268;BME280;62638;51.362;12.472;2022-08-19T11:24:11;99887.63;;;20.51;83.42
74268;BME280;62638;51.362;12.472;2022-08-19T11:26:38;99891.63;;;20.49;83.45
74268;BME280;62638;51.362;12.472;2022-08-19T11:29:05;99884.66;;;20.59;83.31
74268;BME280;62638;51.362;12.472;2022-08-19T11:31:32;99890.00;;;20.72;82.46
74268;BME280;62638;51.362;12.472;2022-08-19T11:34:00;99901.19;;;20.96;81.33
74268;BME280;62638;51.362;12.472;2022-08-19T11:36:27;99902.44;;;20.93;81.75
74268;BME280;62638;51.362;12.472;2022-08-19T11:38:53;99914.31;;;20.67;81.23
74268;BME280;62638;51.362;12.472;2022-08-19T11:41:21;99921.84;;;20.72;82.49
74268;BME280;62638;51.362;12.472;2022-08-19T11:43:47;99920.50;;;20.88;81.12
74268;BME280;62638;51.362;12.472;2022-08-19T11:46:15;99915.47;;;20.91;80.37
74268;BME280;62638;51.362;12.472;2022-08-19T11:48:41;99924.69;;;20.90;80.32
74268;BME280;62638;51.362;12.472;2022-08-19T11:51:15;99920.50;;;20.88;80.84
74268;BME280;62638;51.362;12.472;2022-08-19T11:53:41;99919.88;;;20.86;80.30
74268;BME280;62638;51.362;12.472;2022-08-19T11:56:08;99922.31;;;21.00;80.54
74268;BME280;62638;51.362;12.472;2022-08-19T11:58:35;99918.44;;;21.21;77.96
74268;BME280;62638;51.362;12.472;2022-08-19T12:01:01;99905.34;;;21.54;78.71
74268;BME280;62638;51.362;12.472;2022-08-19T12:03:27;99903.03;;;21.33;77.86
74268;BME280;62638;51.362;12.472;2022-08-19T12:05:53;99895.03;;;21.38;77.93
74268;BME280;62638;51.362;12.472;2022-08-19T12:08:18;99897.97;;;21.61;77.54
74268;BME280;62638;51.362;12.472;2022-08-19T12:10:44;99905.56;;;21.78;76.25
74268;BME280;62638;51.362;12.472;2022-08-19T12:13:11;99906.22;;;21.98;75.89
74268;BME280;62638;51.362;12.472;2022-08-19T12:15:39;99906.06;;;22.11;75.36
74268;BME280;62638;51.362;12.472;2022-08-19T12:18:09;99880.84;;;21.97;75.47
74268;BME280;62638;51.362;12.472;2022-08-19T12:20:36;99885.69;;;22.13;75.08
74268;BME280;62638;51.362;12.472;2022-08-19T12:23:03;99873.25;;;22.66;71.94
74268;BME280;62638;51.362;12.472;2022-08-19T12:25:29;99869.31;;;22.80;72.67
74268;BME280;62638;51.362;12.472;2022-08-19T12:27:54;99865.16;;;22.77;71.95
74268;BME280;62638;51.362;12.472;2022-08-19T12:30:20;99870.44;;;23.55;69.44
74268;BME280;62638;51.362;12.472;2022-08-19T12:32:45;99860.38;;;22.73;72.01
74268;BME280;62638;51.362;12.472;2022-08-19T12:35:10;99863.97;;;22.85;70.84
74268;BME280;62638;51.362;12.472;2022-08-19T12:37:36;99861.09;;;22.50;73.27
74268;BME280;62638;51.362;12.472;2022-08-19T12:40:03;99863.78;;;23.51;70.73
74268;BME280;62638;51.362;12.472;2022-08-19T12:42:28;99860.50;;;23.19;70.35
74268;BME280;62638;51.362;12.472;2022-08-19T12:44:55;99856.00;;;23.36;70.51
74268;BME280;62638;51.362;12.472;2022-08-19T12:47:21;99864.56;;;23.51;69.25
74268;BME280;62638;51.362;12.472;2022-08-19T12:49:46;99871.38;;;23.49;69.08
74268;BME280;62638;51.362;12.472;2022-08-19T12:52:13;99875.25;;;23.41;68.15
74268;BME280;62638;51.362;12.472;2022-08-19T12:54:41;99877.66;;;23.49;68.47
74268;BME280;62638;51.362;12.472;2022-08-19T12:57:09;99880.59;;;23.36;68.49